sensor_id;sensor_type;location;lat;lon;timestamp;P1;durP1;ratioP1;P2;durP2;ratioP2
23549;SDS011;11953;49.010;8.608;2022-07-12T00:01:18;1.30;;;1.10;;
23549;SDS011;11953;49.010;8.608;2022-07-12T00:04:05;2.83;;;1.50;;
23549;SDS011;11953;49.010;8.608;2022-07-12T00:06:53;1.50;;;1.30;;
23549;SDS011;11953;49.010;8.608;2022-07-12T00:09:40;2.67;;;1.48;;
23549;SDS011;11953;49.010;8.608;2022-07-12T00:12:26;2.13;;;1.30;;
23549;SDS011;11953;49.010;8.608;2022-07-12T00:15:13;2.80;;;1.63;;
23549;SDS011;11953;49.010;8.608;2022-07-12T00:18:01;3.65;;;1.30;;
23549;SDS011;11953;49.010;8.608;2022-07-12T00:20:48;2.13;;;1.33;;
23549;SDS011;11953;49.010;8.608;2022-07-12T00:23:36;1.50;;;1.17;;
23549;SDS011;11953;49.010;8.608;2022-07-12T00:26:23;1.67;;;1.17;;
23549;SDS011;11953;49.010;8.608;2022-07-12T00:29:10;3.20;;;1.17;;
23549;SDS011;11953;49.010;8.608;2022-07-12T00:31:57;2.03;;;1.30;;
23549;SDS011;11953;49.010;8.608;2022-07-12T00:34:43;1.60;;;1.05;;
23549;SDS011;11953;49.010;8.608;2022-07-12T00:37:31;1.90;;;1.20;;
23549;SDS011;11953;49.010;8.608;2022-07-12T00:40:19;3.08;;;1.25;;
23549;SDS011;11953;49.010;8.608;2022-07-12T00:43:07;2.65;;;1.38;;
23549;SDS011;11953;49.010;8.608;2022-07-12T00:45:53;2.10;;;1.15;;
23549;SDS011;11953;49.010;8.608;2022-07-12T00:48:40;1.40;;;1.17;;
23549;SDS011;11953;49.010;8.608;2022-07-12T00:51:27;2.08;;;1.60;;
23549;SDS011;11953;49.010;8.608;2022-07-12T00:54:14;3.45;;;1.30;;
23549;SDS011;11953;49.010;8.608;2022-07-12T00:57:03;1.80;;;1.40;;
23549;SDS011;11953;49.010;8.608;2022-07-12T00:59:50;4.05;;;1.20;;
23549;SDS011;11953;49.010;8.608;2022-07-12T01:02:37;1.45;;;1.13;;
23549;SDS011;11953;49.010;8.608;2022-07-12T01:05:23;2.28;;;1.33;;
23549;SDS011;11953;49.010;8.608;2022-07-12T01:08:12;1.80;;;1.20;;
23549;SDS011;11953;49.010;8.608;2022-07-12T01:11:01;3.63;;;1.30;;
23549;SDS011;11953;49.010;8.608;2022-07-12T01:13:50;1.10;;;1.00;;
23549;SDS011;11953;49.010;8.608;2022-07-12T01:16:38;2.00;;;1.38;;
23549;SDS011;11953;49.010;8.608;2022-07-12T01:19:25;3.60;;;1.30;;
23549;SDS011;11953;49.010;8.608;2022-07-12T01:22:13;3.88;;;1.20;;
23549;SDS011;11953;49.010;8.608;2022-07-12T01:25:03;2.53;;;1.38;;
23549;SDS011;11953;49.010;8.608;2022-07-12T01:27:51;3.00;;;1.30;;
23549;SDS011;11953;49.010;8.608;2022-07-12T01:30:38;2.30;;;1.13;;
23549;SDS011;11953;49.010;8.608;2022-07-12T01:33:27;2.88;;;1.38;;
23549;SDS011;11953;49.010;8.608;2022-07-12T01:36:13;1.30;;;1.10;;
23549;SDS011;11953;49.010;8.608;2022-07-12T01:39:00;3.05;;;1.60;;
23549;SDS011;11953;49.010;8.608;2022-07-12T01:41:48;1.65;;;1.20;;
23549;SDS011;11953;49.010;8.608;2022-07-12T01:44:34;2.47;;;1.20;;
23549;SDS011;11953;49.010;8.608;2022-07-12T01:47:24;2.47;;;1.38;;
23549;SDS011;11953;49.010;8.608;2022-07-12T01:50:12;1.60;;;1.30;;
23549;SDS011;11953;49.010;8.608;2022-07-12T01:52:59;2.08;;;1.23;;
23549;SDS011;11953;49.010;8.608;2022-07-12T01:55:47;1.55;;;1.10;;
23549;SDS011;11953;49.010;8.608;2022-07-12T01:58:34;1.80;;;1.30;;
23549;SDS011;11953;49.010;8.608;2022-07-12T02:01:22;3.60;;;1.27;;
23549;SDS011;11953;49.010;8.608;2022-07-12T02:04:10;5.07;;;1.40;;
23549;SDS011;11953;49.010;8.608;2022-07-12T02:06:57;2.03;;;1.30;;
23549;SDS011;11953;49.010;8.608;2022-07-12T02:09:43;1.65;;;1.40;;
23549;SDS011;11953;49.010;8.608;2022-07-12T02:12:30;1.88;;;1.42;;
23549;SDS011;11953;49.010;8.608;2022-07-12T02:15:19;2.08;;;1.40;;
23549;SDS011;11953;49.010;8.608;2022-07-12T02:18:06;1.25;;;1.00;;
23549;SDS011;11953;49.010;8.608;2022-07-12T02:20:52;1.50;;;1.20;;
23549;SDS011;11953;49.010;8.608;2022-07-12T02:23:39;1.40;;;1.20;;
23549;SDS011;11953;49.010;8.608;2022-07-12T02:26:25;3.97;;;1.30;;
23549;SDS011;11953;49.010;8.608;2022-07-12T02:29:12;1.38;;;1.23;;
23549;SDS011;11953;49.010;8.608;2022-07-12T02:32:00;1.63;;;1.20;;
23549;SDS011;11953;49.010;8.608;2022-07-12T02:34:47;3.33;;;1.30;;
23549;SDS011;11953;49.010;8.608;2022-07-12T02:37:33;1.85;;;1.35;;
23549;SDS011;11953;49.010;8.608;2022-07-12T02:40:20;3.42;;;1.25;;
23549;SDS011;11953;49.010;8.608;2022-07-12T02:43:24;5.30;;;1.50;;
23549;SDS011;11953;49.010;8.608;2022-07-12T02:46:13;3.80;;;1.23;;
23549;SDS011;11953;49.010;8.608;2022-07-12T02:49:01;4.82;;;1.20;;
23549;SDS011;11953;49.010;8.608;2022-07-12T02:51:48;1.65;;;1.38;;
23549;SDS011;11953;49.010;8.608;2022-07-12T02:54:34;1.40;;;1.10;;
23549;SDS011;11953;49.010;8.608;2022-07-12T02:57:20;1.35;;;1.17;;
23549;SDS011;11953;49.010;8.608;2022-07-12T03:00:07;1.73;;;1.13;;
23549;SDS011;11953;49.010;8.608;2022-07-12T03:02:55;1.38;;;1.10;;
23549;SDS011;11953;49.010;8.608;2022-07-12T03:05:43;1.52;;;1.20;;
23549;SDS011;11953;49.010;8.608;2022-07-12T03:08:30;1.25;;;1.15;;
23549;SDS011;11953;49.010;8.608;2022-07-12T03:11:17;1.33;;;1.02;;
23549;SDS011;11953;49.010;8.608;2022-07-12T03:14:03;1.55;;;1.10;;
23549;SDS011;11953;49.010;8.608;2022-07-12T03:16:50;1.73;;;1.30;;
23549;SDS011;11953;49.010;8.608;2022-07-12T03:19:37;2.45;;;1.42;;
23549;SDS011;11953;49.010;8.608;2022-07-12T03:22:25;1.92;;;1.30;;
23549;SDS011;11953;49.010;8.608;2022-07-12T03:25:12;1.95;;;1.17;;
23549;SDS011;11953;49.010;8.608;2022-07-12T03:27:58;2.80;;;1.60;;
23549;SDS011;11953;49.010;8.608;2022-07-12T03:30:45;2.97;;;1.65;;
23549;SDS011;11953;49.010;8.608;2022-07-12T03:33:32;2.08;;;1.20;;
23549;SDS011;11953;49.010;8.608;2022-07-12T03:36:19;2.28;;;1.35;;
23549;SDS011;11953;49.010;8.608;2022-07-12T03:39:06;5.53;;;1.80;;
23549;SDS011;11953;49.010;8.608;2022-07-12T03:41:53;4.20;;;1.70;;
23549;SDS011;11953;49.010;8.608;2022-07-12T03:44:39;1.90;;;1.33;;
23549;SDS011;11953;49.010;8.608;2022-07-12T03:47:26;2.17;;;1.30;;
23549;SDS011;11953;49.010;8.608;2022-07-12T03:50:13;2.38;;;1.40;;
23549;SDS011;11953;49.010;8.608;2022-07-12T03:53:00;2.30;;;1.38;;
23549;SDS011;11953;49.010;8.608;2022-07-12T03:55:48;3.50;;;1.63;;
23549;SDS011;11953;49.010;8.608;2022-07-12T03:58:35;3.58;;;1.40;;
23549;SDS011;11953;49.010;8.608;2022-07-12T04:01:22;2.03;;;1.60;;
23549;SDS011;11953;49.010;8.608;2022-07-12T04:04:09;2.58;;;1.60;;
23549;SDS011;11953;49.010;8.608;2022-07-12T04:06:56;2.53;;;1.30;;
23549;SDS011;11953;49.010;8.608;2022-07-12T04:09:43;3.22;;;1.60;;
23549;SDS011;11953;49.010;8.608;2022-07-12T04:12:31;4.22;;;1.40;;
23549;SDS011;11953;49.010;8.608;2022-07-12T04:15:19;2.15;;;1.50;;
23549;SDS011;11953;49.010;8.608;2022-07-12T04:18:05;2.20;;;1.75;;
23549;SDS011;11953;49.010;8.608;2022-07-12T04:20:53;1.95;;;1.50;;
23549;SDS011;11953;49.010;8.608;2022-07-12T04:23:39;1.60;;;1.40;;
23549;SDS011;11953;49.010;8.608;2022-07-12T04:26:26;2.30;;;1.50;;
23549;SDS011;11953;49.010;8.608;2022-07-12T04:29:13;2.13;;;1.20;;
23549;SDS011;11953;49.010;8.608;2022-07-12T04:32:00;1.70;;;1.13;;
23549;SDS011;11953;49.010;8.608;2022-07-12T04:34:47;3.45;;;1.23;;
23549;SDS011;11953;49.010;8.608;2022-07-12T04:37:34;1.50;;;1.30;;
23549;SDS011;11953;49.010;8.608;2022-07-12T04:40:21;1.50;;;1.08;;
23549;SDS011;11953;49.010;8.608;2022-07-12T04:43:07;2.65;;;1.23;;
23549;SDS011;11953;49.010;8.608;2022-07-12T04:45:56;1.33;;;1.17;;
23549;SDS011;11953;49.010;8.608;2022-07-12T04:48:51;2.20;;;1.40;;
23549;SDS011;11953;49.010;8.608;2022-07-12T04:51:37;1.60;;;1.20;;
23549;SDS011;11953;49.010;8.608;2022-07-12T04:54:24;1.65;;;1.23;;
23549;SDS011;11953;49.010;8.608;2022-07-12T04:57:11;3.25;;;1.60;;
23549;SDS011;11953;49.010;8.608;2022-07-12T04:59:58;3.25;;;1.30;;
23549;SDS011;11953;49.010;8.608;2022-07-12T05:02:46;6.15;;;1.30;;
23549;SDS011;11953;49.010;8.608;2022-07-12T05:05:33;5.82;;;1.27;;
23549;SDS011;11953;49.010;8.608;2022-07-12T05:08:20;1.40;;;1.20;;
23549;SDS011;11953;49.010;8.608;2022-07-12T05:11:07;1.73;;;1.00;;
23549;SDS011;11953;49.010;8.608;2022-07-12T05:13:53;1.88;;;1.20;;
23549;SDS011;11953;49.010;8.608;2022-07-12T05:16:40;2.95;;;1.20;;
23549;SDS011;11953;49.010;8.608;2022-07-12T05:19:28;2.92;;;1.30;;
23549;SDS011;11953;49.010;8.608;2022-07-12T05:22:15;1.88;;;1.30;;
23549;SDS011;11953;49.010;8.608;2022-07-12T05:25:02;2.60;;;1.40;;
23549;SDS011;11953;49.010;8.608;2022-07-12T05:27:50;5.13;;;1.38;;
23549;SDS011;11953;49.010;8.608;2022-07-12T05:30:37;2.90;;;1.30;;
23549;SDS011;11953;49.010;8.608;2022-07-12T05:33:23;1.42;;;1.33;;
23549;SDS011;11953;49.010;8.608;2022-07-12T05:36:11;4.13;;;1.48;;
23549;SDS011;11953;49.010;8.608;2022-07-12T05:38:58;2.35;;;1.40;;
23549;SDS011;11953;49.010;8.608;2022-07-12T05:41:45;4.72;;;1.48;;
23549;SDS011;11953;49.010;8.608;2022-07-12T05:44:32;3.03;;;1.65;;
23549;SDS011;11953;49.010;8.608;2022-07-12T05:47:18;3.20;;;1.20;;
23549;SDS011;11953;49.010;8.608;2022-07-12T05:50:05;1.60;;;0.90;;
23549;SDS011;11953;49.010;8.608;2022-07-12T05:52:54;2.55;;;1.00;;
23549;SDS011;11953;49.010;8.608;2022-07-12T05:55:58;1.85;;;1.10;;
23549;SDS011;11953;49.010;8.608;2022-07-12T05:58:44;1.27;;;0.98;;
23549;SDS011;11953;49.010;8.608;2022-07-12T06:01:31;2.20;;;0.90;;
23549;SDS011;11953;49.010;8.608;2022-07-12T06:04:18;1.40;;;1.10;;
23549;SDS011;11953;49.010;8.608;2022-07-12T06:07:05;2.00;;;0.90;;
23549;SDS011;11953;49.010;8.608;2022-07-12T06:09:53;1.10;;;0.95;;
23549;SDS011;11953;49.010;8.608;2022-07-12T06:12:40;1.15;;;0.77;;
23549;SDS011;11953;49.010;8.608;2022-07-12T06:15:27;1.50;;;0.73;;
23549;SDS011;11953;49.010;8.608;2022-07-12T06:18:18;4.32;;;0.70;;
23549;SDS011;11953;49.010;8.608;2022-07-12T06:21:05;0.77;;;0.55;;
23549;SDS011;11953;49.010;8.608;2022-07-12T06:23:51;0.70;;;0.50;;
23549;SDS011;11953;49.010;8.608;2022-07-12T06:26:40;1.23;;;0.50;;
23549;SDS011;11953;49.010;8.608;2022-07-12T06:29:26;0.73;;;0.50;;
23549;SDS011;11953;49.010;8.608;2022-07-12T06:32:13;1.63;;;0.60;;
23549;SDS011;11953;49.010;8.608;2022-07-12T06:35:00;1.42;;;0.60;;
23549;SDS011;11953;49.010;8.608;2022-07-12T06:37:47;3.53;;;0.68;;
23549;SDS011;11953;49.010;8.608;2022-07-12T06:40:33;2.03;;;0.60;;
23549;SDS011;11953;49.010;8.608;2022-07-12T06:43:21;4.60;;;0.60;;
23549;SDS011;11953;49.010;8.608;2022-07-12T06:46:08;3.92;;;0.52;;
23549;SDS011;11953;49.010;8.608;2022-07-12T06:48:55;1.63;;;0.70;;
23549;SDS011;11953;49.010;8.608;2022-07-12T06:51:42;2.15;;;0.40;;
23549;SDS011;11953;49.010;8.608;2022-07-12T06:54:28;0.75;;;0.52;;
23549;SDS011;11953;49.010;8.608;2022-07-12T06:57:15;1.17;;;0.40;;
23549;SDS011;11953;49.010;8.608;2022-07-12T07:00:03;1.15;;;0.40;;
23549;SDS011;11953;49.010;8.608;2022-07-12T07:02:51;1.25;;;0.60;;
23549;SDS011;11953;49.010;8.608;2022-07-12T07:05:38;1.95;;;0.57;;
23549;SDS011;11953;49.010;8.608;2022-07-12T07:08:25;1.63;;;0.60;;
23549;SDS011;11953;49.010;8.608;2022-07-12T07:11:12;1.25;;;0.70;;
23549;SDS011;11953;49.010;8.608;2022-07-12T07:13:59;2.15;;;0.90;;
23549;SDS011;11953;49.010;8.608;2022-07-12T07:16:47;1.63;;;0.70;;
23549;SDS011;11953;49.010;8.608;2022-07-12T07:19:36;0.95;;;0.50;;
23549;SDS011;11953;49.010;8.608;2022-07-12T07:22:23;1.00;;;0.45;;
23549;SDS011;11953;49.010;8.608;2022-07-12T07:25:09;1.10;;;0.40;;
23549;SDS011;11953;49.010;8.608;2022-07-12T07:27:56;2.47;;;0.57;;
23549;SDS011;11953;49.010;8.608;2022-07-12T07:30:43;1.95;;;0.55;;
23549;SDS011;11953;49.010;8.608;2022-07-12T07:33:39;1.27;;;0.45;;
23549;SDS011;11953;49.010;8.608;2022-07-12T07:36:26;0.63;;;0.52;;
23549;SDS011;11953;49.010;8.608;2022-07-12T07:39:12;0.55;;;0.43;;
23549;SDS011;11953;49.010;8.608;2022-07-12T07:42:05;3.15;;;0.50;;
23549;SDS011;11953;49.010;8.608;2022-07-12T07:44:52;1.25;;;0.50;;
23549;SDS011;11953;49.010;8.608;2022-07-12T07:47:58;1.73;;;0.40;;
23549;SDS011;11953;49.010;8.608;2022-07-12T07:51:07;0.60;;;0.50;;
23549;SDS011;11953;49.010;8.608;2022-07-12T07:53:53;0.50;;;0.40;;
23549;SDS011;11953;49.010;8.608;2022-07-12T07:56:40;1.80;;;0.30;;
23549;SDS011;11953;49.010;8.608;2022-07-12T07:59:27;2.45;;;0.38;;
23549;SDS011;11953;49.010;8.608;2022-07-12T08:02:14;2.45;;;0.20;;
23549;SDS011;11953;49.010;8.608;2022-07-12T08:05:01;0.10;;;0.10;;
23549;SDS011;11953;49.010;8.608;2022-07-12T08:07:50;0.20;;;0.20;;
23549;SDS011;11953;49.010;8.608;2022-07-12T08:10:48;0.20;;;0.20;;
23549;SDS011;11953;49.010;8.608;2022-07-12T08:13:35;0.15;;;0.10;;
23549;SDS011;11953;49.010;8.608;2022-07-12T08:16:22;0.35;;;0.35;;
23549;SDS011;11953;49.010;8.608;2022-07-12T08:19:09;0.93;;;0.15;;
23549;SDS011;11953;49.010;8.608;2022-07-12T08:21:56;2.17;;;0.20;;
23549;SDS011;11953;49.010;8.608;2022-07-12T08:24:44;0.68;;;0.30;;
23549;SDS011;11953;49.010;8.608;2022-07-12T08:27:31;0.47;;;0.20;;
23549;SDS011;11953;49.010;8.608;2022-07-12T08:30:17;0.20;;;0.20;;
23549;SDS011;11953;49.010;8.608;2022-07-12T08:33:06;0.55;;;0.20;;
23549;SDS011;11953;49.010;8.608;2022-07-12T08:35:52;0.93;;;0.30;;
23549;SDS011;11953;49.010;8.608;2022-07-12T08:38:39;0.30;;;0.20;;
23549;SDS011;11953;49.010;8.608;2022-07-12T08:41:30;0.50;;;0.20;;
23549;SDS011;11953;49.010;8.608;2022-07-12T08:44:16;0.75;;;0.20;;
23549;SDS011;11953;49.010;8.608;2022-07-12T08:47:04;1.40;;;0.40;;
23549;SDS011;11953;49.010;8.608;2022-07-12T08:50:10;0.95;;;0.20;;
23549;SDS011;11953;49.010;8.608;2022-07-12T08:52:58;0.47;;;0.28;;
23549;SDS011;11953;49.010;8.608;2022-07-12T08:55:45;1.67;;;0.30;;
23549;SDS011;11953;49.010;8.608;2022-07-12T08:58:32;0.70;;;0.20;;
23549;SDS011;11953;49.010;8.608;2022-07-12T09:01:22;2.75;;;0.35;;
23549;SDS011;11953;49.010;8.608;2022-07-12T09:04:26;0.47;;;0.20;;
23549;SDS011;11953;49.010;8.608;2022-07-12T09:07:13;0.60;;;0.22;;
23549;SDS011;11953;49.010;8.608;2022-07-12T09:10:03;2.00;;;0.22;;
23549;SDS011;11953;49.010;8.608;2022-07-12T09:12:50;0.63;;;0.20;;
23549;SDS011;11953;49.010;8.608;2022-07-12T09:15:38;0.20;;;0.20;;
23549;SDS011;11953;49.010;8.608;2022-07-12T09:18:25;0.28;;;0.15;;
23549;SDS011;11953;49.010;8.608;2022-07-12T09:21:26;2.58;;;0.50;;
23549;SDS011;11953;49.010;8.608;2022-07-12T09:24:14;1.27;;;0.20;;
23549;SDS011;11953;49.010;8.608;2022-07-12T09:27:02;1.95;;;0.30;;
23549;SDS011;11953;49.010;8.608;2022-07-12T09:29:50;0.73;;;0.20;;
23549;SDS011;11953;49.010;8.608;2022-07-12T09:32:56;1.60;;;0.20;;
23549;SDS011;11953;49.010;8.608;2022-07-12T09:36:02;0.38;;;0.10;;
23549;SDS011;11953;49.010;8.608;2022-07-12T09:38:54;3.50;;;0.40;;
23549;SDS011;11953;49.010;8.608;2022-07-12T09:41:45;0.63;;;0.20;;
23549;SDS011;11953;49.010;8.608;2022-07-12T09:44:32;0.22;;;0.20;;
23549;SDS011;11953;49.010;8.608;2022-07-12T09:47:44;1.63;;;0.30;;
23549;SDS011;11953;49.010;8.608;2022-07-12T09:50:35;0.47;;;0.20;;
23549;SDS011;11953;49.010;8.608;2022-07-12T09:53:24;0.20;;;0.10;;
23549;SDS011;11953;49.010;8.608;2022-07-12T09:56:14;0.30;;;0.28;;
23549;SDS011;11953;49.010;8.608;2022-07-12T10:02:57;2.75;;;0.22;;
23549;SDS011;11953;49.010;8.608;2022-07-12T11:23:41;2.10;;;0.20;;
23549;SDS011;11953;49.010;8.608;2022-07-12T11:26:28;1.40;;;0.30;;
23549;SDS011;11953;49.010;8.608;2022-07-12T11:29:20;0.68;;;0.22;;
23549;SDS011;11953;49.010;8.608;2022-07-12T11:32:07;1.30;;;0.45;;
23549;SDS011;11953;49.010;8.608;2022-07-12T11:34:56;1.55;;;0.20;;
23549;SDS011;11953;49.010;8.608;2022-07-12T11:37:47;0.85;;;0.30;;
23549;SDS011;11953;49.010;8.608;2022-07-12T11:40:38;1.38;;;0.10;;
23549;SDS011;11953;49.010;8.608;2022-07-12T11:43:26;1.77;;;0.20;;
23549;SDS011;11953;49.010;8.608;2022-07-12T11:46:13;2.20;;;0.40;;
23549;SDS011;11953;49.010;8.608;2022-07-12T11:49:01;1.27;;;0.40;;
23549;SDS011;11953;49.010;8.608;2022-07-12T11:51:48;0.45;;;0.28;;
23549;SDS011;11953;49.010;8.608;2022-07-12T11:54:35;0.25;;;0.20;;
23549;SDS011;11953;49.010;8.608;2022-07-12T11:57:23;0.85;;;0.20;;
23549;SDS011;11953;49.010;8.608;2022-07-12T12:00:16;1.10;;;0.20;;
23549;SDS011;11953;49.010;8.608;2022-07-12T12:03:05;2.40;;;0.32;;
23549;SDS011;11953;49.010;8.608;2022-07-12T12:05:53;0.28;;;0.20;;
23549;SDS011;11953;49.010;8.608;2022-07-12T12:08:41;0.50;;;0.20;;
23549;SDS011;11953;49.010;8.608;2022-07-12T12:11:30;0.90;;;0.20;;
23549;SDS011;11953;49.010;8.608;2022-07-12T12:14:18;2.10;;;0.75;;
23549;SDS011;11953;49.010;8.608;2022-07-12T12:17:10;1.65;;;0.30;;
23549;SDS011;11953;49.010;8.608;2022-07-12T12:20:03;2.88;;;0.20;;
23549;SDS011;11953;49.010;8.608;2022-07-12T12:22:57;0.80;;;0.30;;
23549;SDS011;11953;49.010;8.608;2022-07-12T12:25:45;1.30;;;0.30;;
23549;SDS011;11953;49.010;8.608;2022-07-12T12:28:46;1.02;;;0.40;;
23549;SDS011;11953;49.010;8.608;2022-07-12T12:31:35;2.70;;;0.30;;
23549;SDS011;11953;49.010;8.608;2022-07-12T12:34:22;0.38;;;0.20;;
23549;SDS011;11953;49.010;8.608;2022-07-12T12:37:09;2.75;;;0.30;;
23549;SDS011;11953;49.010;8.608;2022-07-12T12:39:57;1.58;;;0.43;;
23549;SDS011;11953;49.010;8.608;2022-07-12T12:42:44;0.25;;;0.20;;
23549;SDS011;11953;49.010;8.608;2022-07-12T12:45:31;1.15;;;0.22;;
23549;SDS011;11953;49.010;8.608;2022-07-12T12:48:20;1.73;;;0.40;;
23549;SDS011;11953;49.010;8.608;2022-07-12T12:51:08;0.80;;;0.28;;
23549;SDS011;11953;49.010;8.608;2022-07-12T12:53:56;1.92;;;0.40;;
23549;SDS011;11953;49.010;8.608;2022-07-12T12:56:43;0.40;;;0.22;;
23549;SDS011;11953;49.010;8.608;2022-07-12T12:59:30;2.35;;;0.40;;
23549;SDS011;11953;49.010;8.608;2022-07-12T13:02:18;0.85;;;0.30;;
23549;SDS011;11953;49.010;8.608;2022-07-12T13:05:07;0.75;;;0.20;;
23549;SDS011;11953;49.010;8.608;2022-07-12T13:07:54;2.25;;;0.20;;
23549;SDS011;11953;49.010;8.608;2022-07-12T13:10:41;0.40;;;0.30;;
23549;SDS011;11953;49.010;8.608;2022-07-12T13:13:29;0.22;;;0.20;;
23549;SDS011;11953;49.010;8.608;2022-07-12T13:16:16;1.17;;;0.30;;
23549;SDS011;11953;49.010;8.608;2022-07-12T13:19:03;0.45;;;0.20;;
23549;SDS011;11953;49.010;8.608;2022-07-12T13:21:51;1.10;;;0.25;;
23549;SDS011;11953;49.010;8.608;2022-07-12T13:24:38;2.67;;;0.30;;
23549;SDS011;11953;49.010;8.608;2022-07-12T13:27:25;1.70;;;0.40;;
23549;SDS011;11953;49.010;8.608;2022-07-12T13:30:13;3.15;;;0.40;;
23549;SDS011;11953;49.010;8.608;2022-07-12T13:33:01;0.38;;;0.25;;
23549;SDS011;11953;49.010;8.608;2022-07-12T13:35:48;2.55;;;0.35;;
23549;SDS011;11953;49.010;8.608;2022-07-12T13:38:36;3.05;;;0.40;;
23549;SDS011;11953;49.010;8.608;2022-07-12T13:41:23;1.65;;;0.65;;
23549;SDS011;11953;49.010;8.608;2022-07-12T13:44:12;1.40;;;0.30;;
23549;SDS011;11953;49.010;8.608;2022-07-12T13:47:06;3.85;;;0.52;;
23549;SDS011;11953;49.010;8.608;2022-07-12T13:49:53;1.15;;;0.40;;
23549;SDS011;11953;49.010;8.608;2022-07-12T13:52:43;0.45;;;0.20;;
23549;SDS011;11953;49.010;8.608;2022-07-12T13:55:32;1.15;;;0.30;;
23549;SDS011;11953;49.010;8.608;2022-07-12T13:58:19;1.90;;;0.30;;
23549;SDS011;11953;49.010;8.608;2022-07-12T14:01:06;0.47;;;0.32;;
23549;SDS011;11953;49.010;8.608;2022-07-12T14:03:53;1.70;;;0.40;;
23549;SDS011;11953;49.010;8.608;2022-07-12T14:06:40;1.85;;;0.40;;
23549;SDS011;11953;49.010;8.608;2022-07-12T14:09:27;0.40;;;0.30;;
23549;SDS011;11953;49.010;8.608;2022-07-12T14:12:15;4.53;;;0.30;;
23549;SDS011;11953;49.010;8.608;2022-07-12T14:15:01;0.50;;;0.30;;
23549;SDS011;11953;49.010;8.608;2022-07-12T14:18:05;0.30;;;0.30;;
23549;SDS011;11953;49.010;8.608;2022-07-12T14:20:53;0.30;;;0.20;;
23549;SDS011;11953;49.010;8.608;2022-07-12T14:23:40;1.05;;;0.20;;
23549;SDS011;11953;49.010;8.608;2022-07-12T14:26:27;0.85;;;0.25;;
23549;SDS011;11953;49.010;8.608;2022-07-12T14:29:15;2.90;;;0.40;;
23549;SDS011;11953;49.010;8.608;2022-07-12T14:32:02;5.53;;;0.50;;
23549;SDS011;11953;49.010;8.608;2022-07-12T14:34:50;0.90;;;0.40;;
23549;SDS011;11953;49.010;8.608;2022-07-12T14:37:37;0.40;;;0.20;;
23549;SDS011;11953;49.010;8.608;2022-07-12T14:40:25;2.05;;;0.45;;
23549;SDS011;11953;49.010;8.608;2022-07-12T14:43:12;10.00;;;5.00;;
23549;SDS011;11953;49.010;8.608;2022-07-12T14:46:00;7.75;;;4.53;;
23549;SDS011;11953;49.010;8.608;2022-07-12T14:48:47;10.82;;;7.75;;
23549;SDS011;11953;49.010;8.608;2022-07-12T14:51:34;8.15;;;6.28;;
23549;SDS011;11953;49.010;8.608;2022-07-12T14:54:21;3.65;;;2.65;;
23549;SDS011;11953;49.010;8.608;2022-07-12T14:57:08;0.65;;;0.63;;
23549;SDS011;11953;49.010;8.608;2022-07-12T14:59:54;1.48;;;0.30;;
23549;SDS011;11953;49.010;8.608;2022-07-12T15:02:43;1.42;;;0.20;;
23549;SDS011;11953;49.010;8.608;2022-07-12T15:08:22;0.32;;;0.30;;
23549;SDS011;11953;49.010;8.608;2022-07-12T15:11:09;0.75;;;0.28;;
23549;SDS011;11953;49.010;8.608;2022-07-12T15:13:56;0.73;;;0.28;;
23549;SDS011;11953;49.010;8.608;2022-07-12T15:16:43;0.77;;;0.30;;
23549;SDS011;11953;49.010;8.608;2022-07-12T15:19:31;0.30;;;0.28;;
23549;SDS011;11953;49.010;8.608;2022-07-12T15:22:17;0.47;;;0.28;;
23549;SDS011;11953;49.010;8.608;2022-07-12T15:25:04;2.28;;;0.43;;
23549;SDS011;11953;49.010;8.608;2022-07-12T15:27:51;0.50;;;0.20;;
23549;SDS011;11953;49.010;8.608;2022-07-12T15:30:39;0.32;;;0.30;;
23549;SDS011;11953;49.010;8.608;2022-07-12T15:33:26;0.30;;;0.20;;
23549;SDS011;11953;49.010;8.608;2022-07-12T15:36:14;0.38;;;0.30;;
23549;SDS011;11953;49.010;8.608;2022-07-12T15:39:01;0.50;;;0.32;;
23549;SDS011;11953;49.010;8.608;2022-07-12T15:41:48;3.70;;;0.38;;
23549;SDS011;11953;49.010;8.608;2022-07-12T15:44:35;2.33;;;0.30;;
23549;SDS011;11953;49.010;8.608;2022-07-12T15:47:22;0.40;;;0.40;;
23549;SDS011;11953;49.010;8.608;2022-07-12T15:50:09;0.40;;;0.30;;
23549;SDS011;11953;49.010;8.608;2022-07-12T15:52:58;2.40;;;0.30;;
23549;SDS011;11953;49.010;8.608;2022-07-12T15:56:03;0.20;;;0.20;;
23549;SDS011;11953;49.010;8.608;2022-07-12T15:58:52;6.28;;;0.43;;
23549;SDS011;11953;49.010;8.608;2022-07-12T16:01:40;3.97;;;0.38;;
23549;SDS011;11953;49.010;8.608;2022-07-12T16:04:27;0.30;;;0.20;;
23549;SDS011;11953;49.010;8.608;2022-07-12T16:07:14;0.70;;;0.20;;
23549;SDS011;11953;49.010;8.608;2022-07-12T16:10:03;2.53;;;0.47;;
23549;SDS011;11953;49.010;8.608;2022-07-12T16:12:51;2.58;;;0.50;;
23549;SDS011;11953;49.010;8.608;2022-07-12T16:15:38;0.30;;;0.30;;
23549;SDS011;11953;49.010;8.608;2022-07-12T16:18:25;0.60;;;0.30;;
23549;SDS011;11953;49.010;8.608;2022-07-12T16:21:12;0.20;;;0.20;;
23549;SDS011;11953;49.010;8.608;2022-07-12T16:24:02;0.68;;;0.25;;
23549;SDS011;11953;49.010;8.608;2022-07-12T16:26:50;1.13;;;0.30;;
23549;SDS011;11953;49.010;8.608;2022-07-12T16:29:39;0.68;;;0.30;;
23549;SDS011;11953;49.010;8.608;2022-07-12T16:32:26;0.30;;;0.30;;
23549;SDS011;11953;49.010;8.608;2022-07-12T16:35:14;0.90;;;0.20;;
23549;SDS011;11953;49.010;8.608;2022-07-12T16:38:01;1.08;;;0.28;;
23549;SDS011;11953;49.010;8.608;2022-07-12T16:40:52;2.10;;;0.22;;
23549;SDS011;11953;49.010;8.608;2022-07-12T16:43:40;1.00;;;0.50;;
23549;SDS011;11953;49.010;8.608;2022-07-12T16:46:27;1.02;;;0.32;;
23549;SDS011;11953;49.010;8.608;2022-07-12T16:49:14;0.95;;;0.30;;
23549;SDS011;11953;49.010;8.608;2022-07-12T16:52:01;1.30;;;0.30;;
23549;SDS011;11953;49.010;8.608;2022-07-12T16:54:48;0.80;;;0.30;;
23549;SDS011;11953;49.010;8.608;2022-07-12T16:57:38;0.80;;;0.38;;
23549;SDS011;11953;49.010;8.608;2022-07-12T17:00:26;0.63;;;0.20;;
23549;SDS011;11953;49.010;8.608;2022-07-12T17:03:19;1.42;;;0.22;;
23549;SDS011;11953;49.010;8.608;2022-07-12T17:06:06;0.65;;;0.30;;
23549;SDS011;11953;49.010;8.608;2022-07-12T17:08:53;1.70;;;0.30;;
23549;SDS011;11953;49.010;8.608;2022-07-12T17:11:39;0.35;;;0.35;;
23549;SDS011;11953;49.010;8.608;2022-07-12T17:14:26;0.40;;;0.35;;
23549;SDS011;11953;49.010;8.608;2022-07-12T17:17:14;2.45;;;0.30;;
23549;SDS011;11953;49.010;8.608;2022-07-12T17:20:01;0.45;;;0.45;;
23549;SDS011;11953;49.010;8.608;2022-07-12T17:22:48;0.60;;;0.45;;
23549;SDS011;11953;49.010;8.608;2022-07-12T17:25:35;0.30;;;0.20;;
23549;SDS011;11953;49.010;8.608;2022-07-12T17:28:22;2.25;;;0.40;;
23549;SDS011;11953;49.010;8.608;2022-07-12T17:31:09;1.02;;;0.40;;
23549;SDS011;11953;49.010;8.608;2022-07-12T17:33:58;0.63;;;0.32;;
23549;SDS011;11953;49.010;8.608;2022-07-12T17:36:45;0.40;;;0.40;;
23549;SDS011;11953;49.010;8.608;2022-07-12T17:39:38;0.77;;;0.40;;
23549;SDS011;11953;49.010;8.608;2022-07-12T17:42:25;1.15;;;0.40;;
23549;SDS011;11953;49.010;8.608;2022-07-12T17:45:12;0.77;;;0.20;;
23549;SDS011;11953;49.010;8.608;2022-07-12T17:47:59;1.13;;;0.40;;
23549;SDS011;11953;49.010;8.608;2022-07-12T17:50:47;1.45;;;0.50;;
23549;SDS011;11953;49.010;8.608;2022-07-12T17:53:38;1.27;;;0.50;;
23549;SDS011;11953;49.010;8.608;2022-07-12T17:56:28;0.30;;;0.30;;
23549;SDS011;11953;49.010;8.608;2022-07-12T17:59:15;0.75;;;0.30;;
23549;SDS011;11953;49.010;8.608;2022-07-12T18:02:02;0.60;;;0.30;;
23549;SDS011;11953;49.010;8.608;2022-07-12T18:04:51;2.53;;;0.60;;
23549;SDS011;11953;49.010;8.608;2022-07-12T18:07:40;1.75;;;0.57;;
23549;SDS011;11953;49.010;8.608;2022-07-12T18:10:26;0.82;;;0.30;;
23549;SDS011;11953;49.010;8.608;2022-07-12T18:13:13;0.38;;;0.38;;
23549;SDS011;11953;49.010;8.608;2022-07-12T18:16:18;0.85;;;0.50;;
23549;SDS011;11953;49.010;8.608;2022-07-12T18:19:05;1.38;;;0.40;;